createdAt,value
2022-08-17T00:00:43.261Z,50.41
2022-08-17T00:06:12.272Z,50.44
2022-08-17T00:11:36.630Z,50.41
2022-08-17T00:16:58.494Z,50.91
2022-08-17T00:22:33.853Z,50.43
2022-08-17T00:27:56.420Z,50.81
2022-08-17T00:33:22.019Z,51.28
2022-08-17T00:38:43.579Z,51.17
2022-08-17T00:44:05.931Z,51.30
2022-08-17T00:49:26.512Z,51.37
2022-08-17T00:54:50.026Z,51.32
2022-08-17T01:00:27.235Z,51.20
2022-08-17T01:05:52.987Z,51.52
2022-08-17T01:11:14.137Z,51.67
2022-08-17T01:16:37.398Z,51.31
2022-08-17T01:22:07.141Z,51.57
2022-08-17T01:27:28.792Z,51.79
2022-08-17T01:32:49.489Z,51.65
2022-08-17T01:38:10.586Z,51.70
2022-08-17T01:43:49.144Z,51.91
2022-08-17T01:49:12.937Z,51.62
2022-08-17T01:54:35.398Z,51.87
2022-08-17T01:59:56.172Z,51.85
2022-08-17T02:05:17.137Z,52.15
2022-08-17T02:10:38.262Z,52.15
2022-08-17T02:16:07.702Z,52.36
2022-08-17T02:21:28.716Z,52.37
2022-08-17T02:26:49.631Z,52.17
2022-08-17T02:32:27.595Z,52.38
2022-08-17T02:37:51.818Z,52.41
2022-08-17T02:43:16.639Z,52.81
2022-08-17T02:48:37.221Z,52.65
2022-08-17T02:54:38.965Z,52.43
2022-08-17T02:59:40.096Z,52.69
2022-08-17T03:05:00.730Z,53.13
2022-08-17T03:10:22.316Z,53.06
2022-08-17T03:15:47.287Z,53.09
2022-08-17T03:21:09.600Z,53.67
2022-08-17T03:26:30.166Z,53.45
2022-08-17T03:31:50.899Z,53.36
2022-08-17T03:37:11.407Z,53.62
2022-08-17T03:42:32.946Z,53.14
2022-08-17T03:48:12.284Z,53.45
2022-08-17T03:53:51.279Z,53.55
2022-08-17T03:59:22.518Z,53.75
2022-08-17T04:04:43.471Z,53.77
2022-08-17T04:10:04.524Z,53.79
2022-08-17T04:15:26.081Z,54.12
2022-08-17T04:20:46.949Z,54.35
2022-08-17T04:26:07.625Z,54.45
2022-08-17T04:31:28.430Z,54.66
2022-08-17T04:36:50.199Z,54.49
2022-08-17T04:42:17.306Z,54.32
2022-08-17T04:47:38.109Z,54.20
2022-08-17T04:52:58.830Z,53.98
2022-08-17T04:58:20.433Z,54.08
2022-08-17T05:03:41.950Z,53.93
2022-08-17T05:09:04.055Z,53.94
2022-08-17T05:14:33.420Z,53.65
2022-08-17T05:19:54.480Z,53.50
2022-08-17T05:25:15.095Z,53.97
2022-08-17T05:30:36.666Z,54.07
2022-08-17T05:35:59.033Z,54.92
2022-08-17T05:41:19.948Z,54.20
2022-08-17T05:46:43.588Z,53.97
2022-08-17T05:52:26.808Z,54.06
2022-08-17T05:57:53.865Z,54.12
2022-08-17T06:03:36.214Z,54.01
2022-08-17T06:09:05.175Z,53.79
2022-08-17T06:14:52.323Z,53.15
2022-08-17T06:20:15.780Z,53.00
2022-08-17T06:25:46.839Z,52.56
2022-08-17T06:31:29.132Z,52.40
2022-08-17T06:37:18.864Z,52.25
2022-08-17T06:42:54.910Z,52.09
2022-08-17T06:48:55.804Z,52.36
2022-08-17T06:54:33.102Z,52.01
2022-08-17T07:00:02.122Z,50.88
2022-08-17T07:05:42.410Z,51.02
2022-08-17T07:11:13.341Z,50.84
2022-08-17T07:16:45.481Z,51.02
2022-08-17T07:22:14.080Z,51.76
2022-08-17T07:27:43.794Z,51.78
2022-08-17T07:33:13.745Z,51.94
2022-08-17T07:38:35.673Z,51.25
2022-08-17T07:43:56.732Z,51.26
2022-08-17T07:49:24.711Z,51.16
2022-08-17T07:54:45.225Z,50.25
2022-08-17T08:00:16.301Z,49.73
2022-08-17T08:05:51.790Z,48.83
2022-08-17T08:11:15.608Z,49.21
2022-08-17T08:16:36.819Z,48.94
2022-08-17T08:22:07.808Z,48.85
2022-08-17T08:27:44.597Z,48.32
2022-08-17T08:33:23.569Z,47.60
2022-08-17T08:39:04.707Z,47.62
2022-08-17T08:45:04.095Z,47.32
2022-08-17T08:50:46.520Z,46.99
2022-08-17T08:57:19.209Z,46.80
2022-08-17T09:02:59.423Z,46.08
2022-08-17T09:09:01.919Z,46.04
2022-08-17T09:14:43.209Z,46.28
2022-08-17T09:20:29.377Z,45.72
2022-08-17T09:25:58.268Z,45.86
2022-08-17T09:31:24.345Z,45.31
2022-08-17T09:36:59.750Z,44.69
2022-08-17T09:42:40.999Z,44.29
2022-08-17T09:48:12.231Z,43.90
2022-08-17T09:53:35.628Z,43.52
2022-08-17T09:59:20.179Z,43.17
2022-08-17T10:04:57.372Z,42.81
2022-08-17T10:10:25.814Z,43.04
2022-08-17T10:16:08.131Z,42.92
2022-08-17T10:21:51.337Z,42.94
2022-08-17T10:27:27.970Z,42.63
2022-08-17T10:32:55.231Z,42.65
2022-08-17T10:38:34.071Z,42.22
2022-08-17T10:44:38.602Z,42.30
2022-08-17T10:50:39.665Z,42.30
2022-08-17T10:56:12.526Z,42.20
2022-08-17T11:01:33.125Z,41.96
2022-08-17T11:07:12.291Z,41.89
2022-08-17T11:13:01.365Z,41.75
2022-08-17T11:18:50.917Z,41.83
2022-08-17T11:24:12.029Z,41.75
2022-08-17T11:29:50.665Z,42.08
2022-08-17T11:35:22.837Z,41.67
2022-08-17T11:40:58.886Z,41.65
2022-08-17T11:47:00.121Z,41.69
2022-08-17T11:52:47.384Z,42.35
2022-08-17T11:58:29.782Z,42.25
2022-08-17T12:03:58.846Z,42.98
2022-08-17T12:09:24.932Z,43.10
2022-08-17T12:15:10.133Z,43.41
2022-08-17T12:20:37.228Z,43.71
2022-08-17T12:26:11.842Z,43.35
2022-08-17T12:31:47.224Z,43.08
2022-08-17T12:37:16.769Z,42.83
2022-08-17T12:42:39.460Z,42.13
2022-08-17T12:48:07.723Z,41.44
2022-08-17T12:53:30.217Z,41.37
2022-08-17T12:58:56.589Z,41.17
2022-08-17T13:04:18.704Z,41.15
2022-08-17T13:09:40.764Z,41.37
2022-08-17T13:15:02.158Z,41.39
2022-08-17T13:20:23.387Z,41.16
2022-08-17T13:25:54.511Z,41.16
2022-08-17T13:31:52.108Z,41.23
2022-08-17T13:37:29.640Z,41.06
2022-08-17T13:42:53.995Z,41.26
2022-08-17T13:48:28.069Z,40.76
2022-08-17T13:53:55.603Z,40.60
2022-08-17T13:59:36.082Z,39.99
2022-08-17T14:05:10.745Z,40.28
2022-08-17T14:10:31.785Z,40.12
2022-08-17T14:15:56.918Z,39.51
2022-08-17T14:21:17.804Z,39.56
2022-08-17T14:26:38.437Z,39.68
2022-08-17T14:32:04.347Z,39.75
2022-08-17T14:37:27.991Z,39.63
2022-08-17T14:42:49.922Z,39.54
2022-08-17T14:48:11.034Z,39.65
2022-08-17T14:53:31.567Z,39.56
2022-08-17T14:58:52.253Z,39.12
2022-08-17T15:04:18.386Z,38.99
2022-08-17T15:09:39.153Z,39.03
2022-08-17T15:15:00.873Z,38.67
2022-08-17T15:20:25.283Z,39.11
2022-08-17T15:25:47.572Z,39.05
2022-08-17T15:31:08.558Z,39.12
2022-08-17T15:36:29.043Z,39.19
2022-08-17T15:41:57.949Z,39.51
2022-08-17T15:47:19.202Z,39.28
2022-08-17T15:52:40.639Z,39.38
2022-08-17T15:58:01.516Z,39.19
2022-08-17T16:04:01.308Z,39.45
2022-08-17T16:09:03.834Z,39.08
2022-08-17T16:14:35.118Z,39.19
2022-08-17T16:19:56.110Z,39.43
2022-08-17T16:25:40.290Z,39.64
2022-08-17T16:31:08.799Z,39.76
2022-08-17T16:36:31.101Z,39.74
2022-08-17T16:41:52.031Z,39.80
2022-08-17T16:47:17.537Z,39.86
2022-08-17T16:52:38.781Z,39.67
2022-08-17T16:57:59.978Z,40.03
2022-08-17T17:03:23.855Z,39.94
2022-08-17T17:09:00.381Z,39.99
2022-08-17T17:14:33.642Z,40.01
2022-08-17T17:20:10.903Z,40.30
2022-08-17T17:25:48.797Z,40.09
2022-08-17T17:31:17.786Z,39.83
2022-08-17T17:36:52.696Z,40.08
2022-08-17T17:42:20.162Z,39.96
2022-08-17T17:47:41.185Z,40.31
2022-08-17T17:53:07.573Z,40.92
2022-08-17T17:58:36.624Z,41.16
2022-08-17T18:04:20.341Z,41.98
2022-08-17T18:10:30.230Z,41.10
2022-08-17T18:15:54.443Z,41.19
2022-08-17T18:21:19.791Z,41.82
2022-08-17T18:26:59.083Z,42.04
2022-08-17T18:32:25.901Z,42.14
2022-08-17T18:37:55.980Z,41.90
2022-08-17T18:43:44.137Z,41.74
2022-08-17T18:49:20.043Z,42.04
2022-08-17T18:55:01.265Z,43.02
2022-08-17T19:00:30.728Z,42.92
2022-08-17T19:06:13.783Z,42.81
2022-08-17T19:11:35.711Z,42.75
2022-08-17T19:17:04.708Z,42.73
2022-08-17T19:22:55.640Z,43.26
2022-08-17T19:28:29.504Z,43.32
2022-08-17T19:33:51.035Z,43.79
2022-08-17T19:39:50.804Z,43.83
2022-08-17T19:45:37.949Z,43.68
2022-08-17T19:51:07.662Z,43.67
2022-08-17T19:57:02.917Z,43.84
2022-08-17T20:02:37.133Z,43.91
2022-08-17T20:08:02.617Z,44.12
2022-08-17T20:13:47.486Z,43.83
2022-08-17T20:19:27.868Z,43.89
2022-08-17T20:25:03.713Z,44.12
2022-08-17T20:30:27.118Z,43.94
2022-08-17T20:36:15.495Z,44.02
2022-08-17T20:42:08.155Z,43.81
2022-08-17T20:47:32.779Z,43.81
2022-08-17T20:52:56.096Z,44.24
2022-08-17T20:58:30.760Z,43.94
2022-08-17T21:03:52.430Z,44.21
2022-08-17T21:09:13.019Z,44.18
2022-08-17T21:14:52.238Z,44.44
2022-08-17T21:20:32.411Z,44.16
2022-08-17T21:25:53.779Z,44.21
2022-08-17T21:31:29.785Z,44.35
2022-08-17T21:36:57.885Z,44.44
2022-08-17T21:42:25.638Z,44.49
2022-08-17T21:48:06.928Z,44.61
2022-08-17T21:53:47.736Z,44.63
2022-08-17T21:59:39.375Z,44.63
2022-08-17T22:05:05.057Z,44.73
2022-08-17T22:10:38.728Z,44.48
2022-08-17T22:16:27.831Z,44.73
2022-08-17T22:22:05.741Z,44.52
2022-08-17T22:27:46.658Z,44.23
2022-08-17T22:33:39.654Z,44.16
2022-08-17T22:39:09.664Z,44.17
2022-08-17T22:44:37.783Z,43.93
2022-08-17T22:50:02.485Z,43.95
2022-08-17T22:55:42.372Z,43.87
2022-08-17T23:01:28.312Z,43.83
2022-08-17T23:06:49.107Z,44.08
2022-08-17T23:12:16.217Z,44.06
2022-08-17T23:17:38.083Z,43.94
2022-08-17T23:23:00.005Z,44.16
2022-08-17T23:28:21.889Z,43.90
2022-08-17T23:33:43.142Z,43.84
2022-08-17T23:39:05.046Z,44.19
2022-08-17T23:44:26.667Z,44.37
2022-08-17T23:49:47.624Z,44.32
2022-08-17T23:55:08.882Z,44.15
